createdAt,value
2016-11-05T00:00:59.047Z,0
2016-11-05T00:01:59.039Z,0
2016-11-05T00:02:59.004Z,0
2016-11-05T00:03:59.009Z,0
2016-11-05T00:04:58.974Z,0
2016-11-05T00:05:58.663Z,0
2016-11-05T00:06:58.997Z,0
2016-11-05T00:07:58.622Z,0
2016-11-05T00:08:58.607Z,0
2016-11-05T00:09:58.902Z,0
2016-11-05T00:10:58.587Z,0
2016-11-05T00:11:58.559Z,0
2016-11-05T00:12:58.848Z,0
2016-11-05T00:13:58.844Z,0
2016-11-05T00:14:58.816Z,0
2016-11-05T00:15:58.497Z,0
2016-11-05T00:16:58.787Z,0
2016-11-05T00:17:58.764Z,0
2016-11-05T00:18:58.455Z,0
2016-11-05T00:19:58.730Z,0
2016-11-05T00:20:58.733Z,0
2016-11-05T00:21:58.713Z,0
2016-11-05T00:22:58.702Z,0
2016-11-05T00:23:58.363Z,0
2016-11-05T00:24:58.354Z,0
2016-11-05T00:25:58.335Z,0
2016-11-05T00:26:58.022Z,0
2016-11-05T00:27:58.036Z,0
2016-11-05T00:28:58.287Z,0
2016-11-05T00:29:58.612Z,0
2016-11-05T00:30:58.559Z,0
2016-11-05T00:31:58.244Z,0
2016-11-05T00:32:58.232Z,0
2016-11-05T00:33:58.543Z,0
2016-11-05T00:34:58.528Z,0
2016-11-05T00:35:58.473Z,0
2016-11-05T00:36:58.464Z,0
2016-11-05T00:37:58.492Z,0
2016-11-05T00:38:58.427Z,0
2016-11-05T00:39:58.130Z,0
2016-11-05T00:40:58.139Z,0
2016-11-05T00:41:58.402Z,0
2016-11-05T00:42:58.067Z,0
2016-11-05T00:43:58.341Z,0
2016-11-05T00:44:58.337Z,0
2016-11-05T00:45:58.313Z,0
2016-11-05T00:46:58.307Z,0
2016-11-05T00:47:58.289Z,0
2016-11-05T00:48:57.964Z,0
2016-11-05T00:49:57.650Z,0
2016-11-05T00:50:58.235Z,0
2016-11-05T00:51:58.218Z,0
2016-11-05T00:52:57.298Z,0
2016-11-05T00:53:58.187Z,0
2016-11-05T00:54:58.170Z,0
2016-11-05T00:55:58.149Z,0
2016-11-05T00:56:57.838Z,0
2016-11-05T00:57:57.815Z,0
2016-11-05T00:58:58.108Z,0
2016-11-05T00:59:58.094Z,0
2016-11-05T01:00:57.773Z,0
2016-11-05T01:01:57.786Z,0
2016-11-05T01:02:57.738Z,0
2016-11-05T01:03:58.023Z,0
2016-11-05T01:04:58.004Z,0
2016-11-05T01:05:58.031Z,0
2016-11-05T01:06:57.974Z,0
2016-11-05T01:07:57.954Z,0
2016-11-05T01:08:57.957Z,0
2016-11-05T01:09:57.917Z,0
2016-11-05T01:10:57.909Z,0
2016-11-05T01:11:57.904Z,0
2016-11-05T01:12:57.892Z,0
2016-11-05T01:13:57.869Z,0
2016-11-05T01:14:57.854Z,0
2016-11-05T01:15:57.830Z,0
2016-11-05T01:16:57.811Z,0
2016-11-05T01:17:57.802Z,0
2016-11-05T01:18:57.779Z,0
2016-11-05T01:19:57.768Z,0
2016-11-05T01:20:57.753Z,0
2016-11-05T01:21:57.731Z,0
2016-11-05T01:22:57.719Z,0
2016-11-05T01:23:57.699Z,0
2016-11-05T01:24:57.684Z,0
2016-11-05T01:25:57.671Z,0
2016-11-05T01:26:57.652Z,0
2016-11-05T01:27:57.638Z,0
2016-11-05T01:28:57.326Z,0
2016-11-05T01:29:57.607Z,0
2016-11-05T01:30:57.288Z,0
2016-11-05T01:31:57.601Z,0
2016-11-05T01:32:57.270Z,0
2016-11-05T01:33:57.541Z,0
2016-11-05T01:34:57.524Z,0
2016-11-05T01:35:57.202Z,0
2016-11-05T01:36:57.491Z,0
2016-11-05T01:37:57.476Z,0
2016-11-05T01:38:57.162Z,0
2016-11-05T01:39:57.443Z,0
2016-11-05T01:40:57.120Z,0
2016-11-05T01:41:56.807Z,0
2016-11-05T01:42:57.420Z,0
2016-11-05T01:43:57.377Z,0
2016-11-05T01:44:57.357Z,0
2016-11-05T01:45:57.372Z,0
2016-11-05T01:46:57.325Z,0
2016-11-05T01:47:57.344Z,0
2016-11-05T01:48:57.295Z,0
2016-11-05T01:49:57.275Z,0
2016-11-05T01:50:57.263Z,0
2016-11-05T01:51:57.247Z,0
2016-11-05T01:52:57.233Z,0
2016-11-05T01:53:57.214Z,0
2016-11-05T01:54:57.201Z,0
2016-11-05T01:55:57.184Z,0
2016-11-05T01:56:56.863Z,0
2016-11-05T01:57:57.146Z,0
2016-11-05T01:58:57.132Z,0
2016-11-05T01:59:57.117Z,0
2016-11-05T02:00:57.106Z,0
2016-11-05T02:01:57.078Z,0
2016-11-05T02:02:57.069Z,0
2016-11-05T02:03:57.051Z,0
2016-11-05T02:04:57.035Z,0
2016-11-05T02:05:56.728Z,0
2016-11-05T02:06:56.701Z,0
2016-11-05T02:07:56.676Z,0
2016-11-05T02:08:56.966Z,0
2016-11-05T02:09:56.953Z,0
2016-11-05T02:10:56.652Z,0
2016-11-05T02:11:57.072Z,0
2016-11-05T02:12:56.903Z,0
2016-11-05T02:13:56.586Z,0
2016-11-05T02:14:56.578Z,0
2016-11-05T02:15:56.893Z,0
2016-11-05T02:16:56.838Z,0
2016-11-05T02:17:56.517Z,0
2016-11-05T02:18:56.797Z,0
2016-11-05T02:19:56.782Z,0
2016-11-05T02:20:56.771Z,0
2016-11-05T02:21:56.752Z,0
2016-11-05T02:22:56.783Z,0
2016-11-05T02:23:56.727Z,0
2016-11-05T02:24:56.708Z,0
2016-11-05T02:25:56.688Z,0
2016-11-05T02:26:56.670Z,0
2016-11-05T02:27:56.055Z,0
2016-11-05T02:28:56.649Z,0
2016-11-05T02:29:56.320Z,0
2016-11-05T02:30:56.604Z,0
2016-11-05T02:31:56.586Z,0
2016-11-05T02:32:56.572Z,0
2016-11-05T02:33:56.564Z,0
2016-11-05T02:34:56.545Z,0
2016-11-05T02:35:56.225Z,0
2016-11-05T02:36:56.510Z,0
2016-11-05T02:37:55.885Z,0
2016-11-05T02:38:56.185Z,0
2016-11-05T02:39:56.462Z,0
2016-11-05T02:40:56.459Z,0
2016-11-05T02:41:56.426Z,0
2016-11-05T02:42:56.117Z,0
2016-11-05T02:43:56.095Z,0
2016-11-05T02:44:56.384Z,0
2016-11-05T02:45:56.367Z,0
2016-11-05T02:46:56.375Z,0
2016-11-05T02:47:56.324Z,0
2016-11-05T02:48:56.311Z,0
2016-11-05T02:49:56.301Z,0
2016-11-05T02:50:56.278Z,0
2016-11-05T02:51:56.260Z,0
2016-11-05T02:52:56.249Z,0
2016-11-05T02:53:55.941Z,0
2016-11-05T02:54:56.211Z,0
2016-11-05T02:55:56.196Z,0
2016-11-05T02:56:55.881Z,0
2016-11-05T02:57:56.184Z,0
2016-11-05T02:58:56.146Z,0
2016-11-05T02:59:56.146Z,0
2016-11-05T03:00:56.118Z,0
2016-11-05T03:01:56.133Z,0
2016-11-05T03:02:56.079Z,0
2016-11-05T03:03:56.068Z,0
2016-11-05T03:04:55.749Z,0
2016-11-05T03:05:56.036Z,0
2016-11-05T03:06:56.023Z,0
2016-11-05T03:07:55.428Z,0
2016-11-05T03:08:55.987Z,0
2016-11-05T03:09:55.681Z,0
2016-11-05T03:10:55.652Z,0
2016-11-05T03:11:55.940Z,0
2016-11-05T03:12:55.622Z,0
2016-11-05T03:13:55.304Z,0
2016-11-05T03:14:55.892Z,0
2016-11-05T03:15:55.877Z,0
2016-11-05T03:16:55.553Z,0
2016-11-05T03:17:55.837Z,0
2016-11-05T03:18:55.222Z,0
2016-11-05T03:19:55.801Z,0
2016-11-05T03:20:55.786Z,0
2016-11-05T03:21:55.778Z,0
2016-11-05T03:22:55.153Z,0
2016-11-05T03:23:55.446Z,0
2016-11-05T03:24:55.135Z,0
2016-11-05T03:25:55.709Z,0
2016-11-05T03:26:55.697Z,0
2016-11-05T03:27:55.377Z,0
2016-11-05T03:28:55.060Z,0
2016-11-05T03:29:55.341Z,0
2016-11-05T03:30:55.624Z,0
2016-11-05T03:31:55.615Z,0
2016-11-05T03:32:55.591Z,0
2016-11-05T03:33:55.274Z,0
2016-11-05T03:34:55.559Z,0
2016-11-05T03:35:55.550Z,0
2016-11-05T03:36:55.229Z,0
2016-11-05T03:37:55.513Z,0
2016-11-05T03:38:55.500Z,0
2016-11-05T03:39:55.481Z,0
2016-11-05T03:40:55.465Z,0
2016-11-05T03:41:55.448Z,0
2016-11-05T03:42:55.428Z,0
2016-11-05T03:43:55.414Z,0
2016-11-05T03:44:55.405Z,0
2016-11-05T03:45:55.382Z,0
2016-11-05T03:46:55.365Z,0
2016-11-05T03:47:55.350Z,0
2016-11-05T03:48:55.332Z,0
2016-11-05T03:49:55.318Z,0
2016-11-05T03:50:55.298Z,0
2016-11-05T03:51:55.285Z,0
2016-11-05T03:52:55.313Z,0
2016-11-05T03:53:54.944Z,0
2016-11-05T03:54:55.229Z,0
2016-11-05T03:55:55.214Z,0
2016-11-05T03:56:55.205Z,0
2016-11-05T03:57:55.195Z,0
2016-11-05T03:58:54.870Z,0
2016-11-05T03:59:54.853Z,0
2016-11-05T04:00:55.131Z,0
2016-11-05T04:01:55.120Z,0
2016-11-05T04:02:55.107Z,0
2016-11-05T04:03:55.086Z,0
2016-11-05T04:04:55.075Z,0
2016-11-05T04:05:55.057Z,0
2016-11-05T04:06:55.035Z,0
2016-11-05T04:07:55.022Z,0
2016-11-05T04:08:54.703Z,0
2016-11-05T04:09:54.693Z,0
2016-11-05T04:10:54.974Z,0
2016-11-05T04:11:54.656Z,0
2016-11-05T04:12:54.935Z,0
2016-11-05T04:13:54.929Z,0
2016-11-05T04:14:54.907Z,0
2016-11-05T04:15:54.896Z,0
2016-11-05T04:16:54.878Z,0
2016-11-05T04:17:54.257Z,0
2016-11-05T04:18:54.538Z,0
2016-11-05T04:19:54.525Z,0
2016-11-05T04:20:54.501Z,0
2016-11-05T04:21:54.792Z,0
2016-11-05T04:22:54.791Z,0
2016-11-05T04:23:54.764Z,0
2016-11-05T04:24:54.735Z,0
2016-11-05T04:25:54.731Z,0
2016-11-05T04:26:54.704Z,0
2016-11-05T04:27:54.691Z,0
2016-11-05T04:28:54.378Z,0
2016-11-05T04:29:54.663Z,0
2016-11-05T04:30:54.640Z,0
2016-11-05T04:31:54.620Z,0
2016-11-05T04:32:54.619Z,0
2016-11-05T04:33:54.328Z,0
2016-11-05T04:34:54.277Z,0
2016-11-05T04:35:54.560Z,0
2016-11-05T04:36:54.543Z,0
2016-11-05T04:37:54.569Z,0
2016-11-05T04:38:54.512Z,0
2016-11-05T04:39:54.501Z,0
2016-11-05T04:40:54.478Z,0
2016-11-05T04:41:54.457Z,0
2016-11-05T04:42:54.173Z,0
2016-11-05T04:43:54.428Z,0
2016-11-05T04:44:54.111Z,0
2016-11-05T04:45:54.401Z,0
2016-11-05T04:46:54.376Z,0
2016-11-05T04:47:54.062Z,0
2016-11-05T04:48:54.350Z,0
2016-11-05T04:49:54.335Z,0
2016-11-05T04:50:54.312Z,0
2016-11-05T04:51:53.690Z,0
2016-11-05T04:52:54.283Z,0
2016-11-05T04:53:54.292Z,0
2016-11-05T04:54:54.241Z,0
2016-11-05T04:55:54.237Z,0
2016-11-05T04:56:53.911Z,0
2016-11-05T04:57:54.187Z,0
2016-11-05T04:58:54.178Z,0
2016-11-05T04:59:54.165Z,0
2016-11-05T05:00:54.150Z,0
2016-11-05T05:01:54.130Z,0
2016-11-05T05:02:54.120Z,0
2016-11-05T05:03:54.100Z,0
2016-11-05T05:04:54.089Z,0
2016-11-05T05:05:53.765Z,0
2016-11-05T05:06:53.750Z,0
2016-11-05T05:07:53.738Z,0
2016-11-05T05:08:53.722Z,0
2016-11-05T05:09:53.705Z,0
2016-11-05T05:10:53.683Z,0
2016-11-05T05:11:53.666Z,0
2016-11-05T05:12:53.657Z,0
2016-11-05T05:13:53.338Z,0
2016-11-05T05:14:53.919Z,0
2016-11-05T05:15:53.601Z,0
2016-11-05T05:16:53.888Z,0
2016-11-05T05:17:53.863Z,0
2016-11-05T05:18:53.865Z,0
2016-11-05T05:19:53.833Z,0
2016-11-05T05:20:53.821Z,0
2016-11-05T05:21:53.836Z,0
2016-11-05T05:22:53.791Z,0
2016-11-05T05:23:53.772Z,0
2016-11-05T05:24:53.761Z,0
2016-11-05T05:25:53.745Z,0
2016-11-05T05:26:53.422Z,0
2016-11-05T05:27:53.405Z,0
2016-11-05T05:28:53.731Z,0
2016-11-05T05:29:53.674Z,0
2016-11-05T05:30:53.661Z,0
2016-11-05T05:31:53.374Z,0
2016-11-05T05:32:53.663Z,0
2016-11-05T05:33:53.618Z,0
2016-11-05T05:34:53.295Z,0
2016-11-05T05:35:53.573Z,0
2016-11-05T05:36:53.562Z,0
2016-11-05T05:37:53.543Z,0
2016-11-05T05:38:53.528Z,0
2016-11-05T05:39:53.208Z,0
2016-11-05T05:40:53.503Z,0
2016-11-05T05:41:52.882Z,0
2016-11-05T05:42:53.466Z,0
2016-11-05T05:43:53.143Z,0
2016-11-05T05:44:53.432Z,0
2016-11-05T05:45:53.413Z,0
2016-11-05T05:46:53.424Z,0
2016-11-05T05:47:53.379Z,0
2016-11-05T05:48:53.373Z,0
2016-11-05T05:49:53.347Z,0
2016-11-05T05:50:52.735Z,0
2016-11-05T05:51:53.317Z,0
2016-11-05T05:52:52.996Z,0
2016-11-05T05:53:53.277Z,0
2016-11-05T05:54:53.268Z,0
2016-11-05T05:55:53.245Z,0
2016-11-05T05:56:52.940Z,0
2016-11-05T05:57:52.929Z,0
2016-11-05T05:58:53.205Z,0
2016-11-05T05:59:53.186Z,0
2016-11-05T06:00:53.173Z,0
2016-11-05T06:01:53.150Z,0
2016-11-05T06:02:53.141Z,0
2016-11-05T06:03:53.121Z,0
2016-11-05T06:04:53.109Z,0
2016-11-05T06:05:52.790Z,0
2016-11-05T06:06:53.075Z,0
2016-11-05T06:07:53.066Z,0
2016-11-05T06:08:53.049Z,0
2016-11-05T06:09:53.029Z,0
2016-11-05T06:10:53.005Z,0
2016-11-05T06:11:52.691Z,0
2016-11-05T06:12:52.674Z,0
2016-11-05T06:13:52.961Z,0
2016-11-05T06:14:52.946Z,0
2016-11-05T06:15:52.936Z,0
2016-11-05T06:16:52.917Z,0
2016-11-05T06:17:52.608Z,0
2016-11-05T06:18:52.885Z,0
2016-11-05T06:19:52.870Z,0
2016-11-05T06:20:52.856Z,0
2016-11-05T06:21:52.835Z,0
2016-11-05T06:22:52.818Z,0
2016-11-05T06:23:52.800Z,0
2016-11-05T06:24:52.484Z,0
2016-11-05T06:25:52.766Z,0
2016-11-05T06:26:52.445Z,0
2016-11-05T06:27:52.732Z,0
2016-11-05T06:28:52.422Z,0
2016-11-05T06:29:52.705Z,0
2016-11-05T06:30:52.695Z,0
2016-11-05T06:31:52.673Z,0
2016-11-05T06:32:52.661Z,0
2016-11-05T06:33:52.638Z,0
2016-11-05T06:34:52.325Z,0
2016-11-05T06:35:52.305Z,0
2016-11-05T06:36:52.600Z,0
2016-11-05T06:37:52.573Z,0
2016-11-05T06:38:52.561Z,0
2016-11-05T06:39:52.249Z,0
2016-11-05T06:40:52.529Z,0
2016-11-05T06:41:51.911Z,0
2016-11-05T06:42:52.503Z,0
2016-11-05T06:43:52.484Z,0
2016-11-05T06:44:52.175Z,0
2016-11-05T06:45:52.455Z,0
2016-11-05T06:46:52.433Z,0
2016-11-05T06:47:52.410Z,0
2016-11-05T06:48:52.405Z,0
2016-11-05T06:49:52.386Z,0
2016-11-05T06:50:52.066Z,0
2016-11-05T06:51:52.047Z,0
2016-11-05T06:52:52.046Z,0
2016-11-05T06:53:52.317Z,0
2016-11-05T06:54:52.307Z,0
2016-11-05T06:55:52.291Z,0
2016-11-05T06:56:51.971Z,0
2016-11-05T06:57:52.261Z,0
2016-11-05T06:58:51.939Z,0
2016-11-05T06:59:52.268Z,0
2016-11-05T07:00:51.921Z,0
2016-11-05T07:01:52.188Z,0
2016-11-05T07:02:51.872Z,0
2016-11-05T07:03:52.163Z,0
2016-11-05T07:04:51.846Z,0
2016-11-05T07:05:52.131Z,0
2016-11-05T07:06:51.818Z,0
2016-11-05T07:07:52.092Z,0
2016-11-05T07:08:51.483Z,0
2016-11-05T07:09:52.065Z,0
2016-11-05T07:10:52.046Z,0
2016-11-05T07:11:51.773Z,0
2016-11-05T07:12:52.012Z,0
2016-11-05T07:13:52.004Z,0
2016-11-05T07:14:51.980Z,0
2016-11-05T07:15:51.980Z,0
2016-11-05T07:16:51.953Z,0
2016-11-05T07:17:51.942Z,0
2016-11-05T07:18:51.925Z,0
2016-11-05T07:19:51.913Z,0
2016-11-05T07:20:51.586Z,0
2016-11-05T07:21:51.911Z,0
2016-11-05T07:22:51.553Z,0
2016-11-05T07:23:51.548Z,0
2016-11-05T07:24:51.525Z,0
2016-11-05T07:25:51.844Z,0
2016-11-05T07:26:51.796Z,0
2016-11-05T07:27:51.786Z,0
2016-11-05T07:28:51.760Z,0
2016-11-05T07:29:51.749Z,0
2016-11-05T07:30:51.741Z,0
2016-11-05T07:31:51.718Z,0
2016-11-05T07:32:51.704Z,0
2016-11-05T07:33:51.087Z,0
2016-11-05T07:34:51.662Z,0
2016-11-05T07:35:51.649Z,0
2016-11-05T07:36:51.328Z,0
2016-11-05T07:37:51.631Z,0
2016-11-05T07:38:51.599Z,0
2016-11-05T07:39:51.586Z,0
2016-11-05T07:40:51.573Z,0
2016-11-05T07:41:51.562Z,0
2016-11-05T07:42:51.237Z,0
2016-11-05T07:43:51.227Z,0
2016-11-05T07:44:51.207Z,0
2016-11-05T07:45:51.227Z,0
2016-11-05T07:46:51.486Z,0
2016-11-05T07:47:51.493Z,0
2016-11-05T07:48:51.444Z,0
2016-11-05T07:49:51.436Z,0
2016-11-05T07:50:51.117Z,0
2016-11-05T07:51:51.412Z,0
2016-11-05T07:52:51.380Z,0
2016-11-05T07:53:51.068Z,0
2016-11-05T07:54:51.356Z,0
2016-11-05T07:55:51.347Z,0
2016-11-05T07:56:51.016Z,0
2016-11-05T07:57:51.315Z,0
2016-11-05T07:58:50.984Z,0
2016-11-05T07:59:51.276Z,0
2016-11-05T08:00:51.255Z,0
2016-11-05T08:01:51.254Z,0
2016-11-05T08:02:51.229Z,0
2016-11-05T08:03:51.208Z,0
2016-11-05T08:04:50.908Z,0
2016-11-05T08:05:50.887Z,0
2016-11-05T08:06:50.864Z,0
2016-11-05T08:07:50.845Z,0
2016-11-05T08:08:51.139Z,0
2016-11-05T08:09:51.122Z,0
2016-11-05T08:10:51.099Z,0
2016-11-05T08:11:51.086Z,0
2016-11-05T08:12:50.769Z,0
2016-11-05T08:13:51.052Z,0
2016-11-05T08:14:51.075Z,0
2016-11-05T08:15:51.017Z,0
2016-11-05T08:16:51.012Z,0
2016-11-05T08:17:50.995Z,0
2016-11-05T08:18:50.986Z,0
2016-11-05T08:19:50.968Z,0
2016-11-05T08:20:50.942Z,0
2016-11-05T08:21:50.930Z,0
2016-11-05T08:22:50.923Z,0
2016-11-05T08:23:50.906Z,0
2016-11-05T08:24:50.883Z,0
2016-11-05T08:25:50.868Z,0
2016-11-05T08:26:50.843Z,0
2016-11-05T08:27:50.523Z,4
2016-11-05T08:28:50.822Z,4
2016-11-05T08:29:50.802Z,4
2016-11-05T08:30:50.780Z,4
2016-11-05T08:31:50.772Z,4
2016-11-05T08:32:50.753Z,0
2016-11-05T08:33:50.743Z,0
2016-11-05T08:34:50.419Z,0
2016-11-05T08:35:50.403Z,0
2016-11-05T08:36:50.695Z,0
2016-11-05T08:37:49.769Z,0
2016-11-05T08:38:50.654Z,0
2016-11-05T08:39:50.647Z,0
2016-11-05T08:40:50.626Z,0
2016-11-05T08:41:50.610Z,0
2016-11-05T08:42:50.601Z,0
2016-11-05T08:43:50.322Z,0
2016-11-05T08:44:50.563Z,0
2016-11-05T08:45:50.582Z,4
2016-11-05T08:46:50.534Z,4
2016-11-05T08:47:50.515Z,4
2016-11-05T08:48:50.496Z,4
2016-11-05T08:49:50.188Z,0
2016-11-05T08:50:50.163Z,0
2016-11-05T08:51:50.156Z,4
2016-11-05T08:52:50.436Z,4
2016-11-05T08:53:50.424Z,0
2016-11-05T08:54:50.415Z,4
2016-11-05T08:55:50.140Z,4
2016-11-05T08:56:50.387Z,4
2016-11-05T08:57:50.365Z,4
2016-11-05T08:58:50.342Z,4
2016-11-05T08:59:50.339Z,0
2016-11-05T09:00:50.014Z,4
2016-11-05T09:01:50.296Z,4
2016-11-05T09:02:50.291Z,0
2016-11-05T09:03:49.967Z,0
2016-11-05T09:04:49.680Z,0
2016-11-05T09:05:50.248Z,0
2016-11-05T09:06:49.921Z,0
2016-11-05T09:07:50.202Z,4
2016-11-05T09:08:50.195Z,0
2016-11-05T09:09:50.169Z,0
2016-11-05T09:10:50.152Z,0
2016-11-05T09:11:49.841Z,0
2016-11-05T09:12:50.125Z,0
2016-11-05T09:13:50.147Z,0
2016-11-05T09:14:50.094Z,0
2016-11-05T09:15:50.091Z,0
2016-11-05T09:16:49.467Z,0
2016-11-05T09:17:50.099Z,0
2016-11-05T09:18:50.024Z,0
2016-11-05T09:19:49.730Z,0
2016-11-05T09:20:49.728Z,0
2016-11-05T09:21:50.023Z,0
2016-11-05T09:22:49.967Z,0
2016-11-05T09:23:49.665Z,0
2016-11-05T09:24:49.935Z,4
2016-11-05T09:25:49.926Z,0
2016-11-05T09:26:49.907Z,4
2016-11-05T09:27:49.886Z,4
2016-11-05T09:28:49.879Z,4
2016-11-05T09:29:49.557Z,4
2016-11-05T09:30:49.844Z,4
2016-11-05T09:31:49.829Z,4
2016-11-05T09:32:49.504Z,4
2016-11-05T09:33:49.793Z,4
2016-11-05T09:34:49.776Z,4
2016-11-05T09:35:49.766Z,4
2016-11-05T09:36:49.439Z,0
2016-11-05T09:37:49.738Z,4
2016-11-05T09:38:49.417Z,0
2016-11-05T09:39:49.700Z,4
2016-11-05T09:40:49.382Z,4
2016-11-05T09:41:49.670Z,4
2016-11-05T09:42:49.346Z,4
2016-11-05T09:43:49.633Z,0
2016-11-05T09:44:49.616Z,4
2016-11-05T09:45:49.304Z,4
2016-11-05T09:46:49.597Z,4
2016-11-05T09:47:49.573Z,4
2016-11-05T09:48:49.553Z,4
2016-11-05T09:49:49.546Z,4
2016-11-05T09:50:49.527Z,4
2016-11-05T09:51:49.505Z,4
2016-11-05T09:52:49.190Z,4
2016-11-05T09:53:49.475Z,4
2016-11-05T09:54:49.472Z,4
2016-11-05T09:55:49.448Z,4
2016-11-05T09:56:49.433Z,4
2016-11-05T09:57:48.810Z,4
2016-11-05T09:58:49.395Z,0
2016-11-05T09:59:49.391Z,0
2016-11-05T10:00:49.373Z,0
2016-11-05T10:01:49.375Z,0
2016-11-05T10:02:49.345Z,4
2016-11-05T10:03:49.331Z,4
2016-11-05T10:04:49.313Z,4
2016-11-05T10:05:49.297Z,4
2016-11-05T10:06:49.279Z,4
2016-11-05T10:07:49.261Z,4
2016-11-05T10:08:49.283Z,0
2016-11-05T10:09:49.236Z,0
2016-11-05T10:10:49.205Z,0
2016-11-05T10:11:49.193Z,0
2016-11-05T10:12:49.177Z,0
2016-11-05T10:13:48.865Z,0
2016-11-05T10:14:48.863Z,0
2016-11-05T10:15:49.133Z,4
2016-11-05T10:16:49.118Z,0
2016-11-05T10:17:48.802Z,0
2016-11-05T10:18:49.085Z,4
2016-11-05T10:19:49.076Z,4
2016-11-05T10:20:48.750Z,4
2016-11-05T10:21:48.741Z,4
2016-11-05T10:22:49.020Z,4
2016-11-05T10:23:48.997Z,4
2016-11-05T10:24:48.990Z,4
2016-11-05T10:25:48.982Z,4
2016-11-05T10:26:48.955Z,4
2016-11-05T10:27:48.336Z,4
2016-11-05T10:28:48.931Z,4
2016-11-05T10:29:48.919Z,4
2016-11-05T10:30:48.895Z,8
2016-11-05T10:31:48.882Z,4
2016-11-05T10:32:48.887Z,0
2016-11-05T10:33:48.847Z,4
2016-11-05T10:34:48.531Z,0
2016-11-05T10:35:48.818Z,4
2016-11-05T10:36:48.808Z,0
2016-11-05T10:37:48.788Z,0
2016-11-05T10:38:48.807Z,0
2016-11-05T10:39:48.758Z,8
2016-11-05T10:40:48.743Z,4
2016-11-05T10:41:48.428Z,4
2016-11-05T10:42:48.720Z,4
2016-11-05T10:43:48.693Z,4
2016-11-05T10:44:48.684Z,8
2016-11-05T10:45:48.367Z,4
2016-11-05T10:46:48.652Z,8
2016-11-05T10:47:48.630Z,8
2016-11-05T10:48:48.611Z,4
2016-11-05T10:49:48.312Z,4
2016-11-05T10:50:48.585Z,4
2016-11-05T10:51:48.616Z,4
2016-11-05T10:52:48.550Z,4
2016-11-05T10:53:48.529Z,4
2016-11-05T10:54:48.519Z,8
2016-11-05T10:55:48.506Z,4
2016-11-05T10:56:48.487Z,4
2016-11-05T10:57:48.474Z,4
2016-11-05T10:58:48.193Z,4
2016-11-05T10:59:48.434Z,4
2016-11-05T11:00:48.123Z,4
2016-11-05T11:01:48.102Z,4
2016-11-05T11:02:48.094Z,8
2016-11-05T11:03:48.371Z,8
2016-11-05T11:04:48.062Z,4
2016-11-05T11:05:48.041Z,4
2016-11-05T11:06:47.725Z,8
2016-11-05T11:07:48.014Z,8
2016-11-05T11:08:47.995Z,8
2016-11-05T11:09:47.984Z,8
2016-11-05T11:10:48.267Z,12
2016-11-05T11:11:47.949Z,16
2016-11-05T11:12:47.638Z,16
2016-11-05T11:13:48.221Z,20
2016-11-05T11:14:48.198Z,16
2016-11-05T11:15:47.882Z,20
2016-11-05T11:16:48.176Z,20
2016-11-05T11:17:48.162Z,20
2016-11-05T11:18:48.143Z,16
2016-11-05T11:19:47.830Z,16
2016-11-05T11:20:48.106Z,12
2016-11-05T11:21:47.793Z,12
2016-11-05T11:22:48.078Z,12
2016-11-05T11:23:48.067Z,20
2016-11-05T11:24:47.744Z,24
2016-11-05T11:25:48.046Z,32
2016-11-05T11:26:47.763Z,32
2016-11-05T11:27:48.009Z,28
2016-11-05T11:28:47.987Z,24
2016-11-05T11:29:47.968Z,20
2016-11-05T11:30:47.956Z,20
2016-11-05T11:31:47.937Z,16
2016-11-05T11:32:47.924Z,16
2016-11-05T11:33:47.910Z,16
2016-11-05T11:34:47.600Z,16
2016-11-05T11:35:47.578Z,12
2016-11-05T11:36:47.869Z,12
2016-11-05T11:37:47.843Z,8
2016-11-05T11:38:47.833Z,8
2016-11-05T11:39:47.812Z,8
2016-11-05T11:40:47.794Z,4
2016-11-05T11:41:47.785Z,4
2016-11-05T11:42:47.763Z,4
2016-11-05T11:43:47.745Z,4
2016-11-05T11:44:47.442Z,8
2016-11-05T11:45:47.730Z,4
2016-11-05T11:46:47.703Z,4
2016-11-05T11:47:47.081Z,4
2016-11-05T11:48:47.370Z,4
2016-11-05T11:49:47.653Z,4
2016-11-05T11:50:47.640Z,8
2016-11-05T11:51:47.321Z,8
2016-11-05T11:52:47.618Z,8
2016-11-05T11:53:47.593Z,8
2016-11-05T11:54:47.311Z,4
2016-11-05T11:55:47.608Z,4
2016-11-05T11:56:47.241Z,4
2016-11-05T11:57:47.530Z,4
2016-11-05T11:58:47.512Z,4
2016-11-05T11:59:46.895Z,4
2016-11-05T12:00:47.486Z,4
2016-11-05T12:01:47.467Z,4
2016-11-05T12:02:47.447Z,4
2016-11-05T12:03:47.441Z,4
2016-11-05T12:04:47.417Z,8
2016-11-05T12:05:47.398Z,8
2016-11-05T12:06:46.817Z,8
2016-11-05T12:07:47.373Z,12
2016-11-05T12:08:47.366Z,12
2016-11-05T12:09:47.341Z,16
2016-11-05T12:10:47.028Z,20
2016-11-05T12:11:47.314Z,24
2016-11-05T12:12:47.294Z,20
2016-11-05T12:13:47.011Z,20
2016-11-05T12:14:47.275Z,24
2016-11-05T12:15:47.254Z,20
2016-11-05T12:16:47.237Z,24
2016-11-05T12:17:47.216Z,20
2016-11-05T12:18:47.200Z,24
2016-11-05T12:19:47.185Z,28
2016-11-05T12:20:46.870Z,24
2016-11-05T12:21:47.157Z,28
2016-11-05T12:22:47.145Z,28
2016-11-05T12:23:47.130Z,28
2016-11-05T12:24:47.113Z,28
2016-11-05T12:25:47.100Z,24
2016-11-05T12:26:47.079Z,24
2016-11-05T12:27:47.057Z,24
2016-11-05T12:28:46.768Z,24
2016-11-05T12:29:47.027Z,28
2016-11-05T12:30:46.716Z,20
2016-11-05T12:31:47.030Z,20
2016-11-05T12:32:46.979Z,20
2016-11-05T12:33:46.668Z,20
2016-11-05T12:34:46.951Z,24
2016-11-05T12:35:46.937Z,20
2016-11-05T12:36:46.318Z,20
2016-11-05T12:37:46.609Z,24
2016-11-05T12:38:46.888Z,24
2016-11-05T12:39:46.873Z,24
2016-11-05T12:40:46.859Z,28
2016-11-05T12:41:46.844Z,20
2016-11-05T12:42:46.827Z,24
2016-11-05T12:43:46.546Z,24
2016-11-05T12:44:46.794Z,20
2016-11-05T12:45:46.783Z,12
2016-11-05T12:46:46.770Z,12
2016-11-05T12:47:46.153Z,8
2016-11-05T12:48:46.772Z,8
2016-11-05T12:49:46.411Z,8
2016-11-05T12:50:46.705Z,8
2016-11-05T12:51:46.691Z,8
2016-11-05T12:52:46.683Z,12
2016-11-05T12:53:46.051Z,12
2016-11-05T12:54:46.639Z,12
2016-11-05T12:55:46.350Z,12
2016-11-05T12:56:46.609Z,12
2016-11-05T12:57:46.301Z,12
2016-11-05T12:58:46.572Z,8
2016-11-05T12:59:46.566Z,12
2016-11-05T13:00:46.252Z,12
2016-11-05T13:01:46.538Z,12
2016-11-05T13:02:46.519Z,12
2016-11-05T13:03:46.540Z,12
2016-11-05T13:04:46.182Z,12
2016-11-05T13:05:46.467Z,12
2016-11-05T13:06:46.454Z,12
2016-11-05T13:07:46.137Z,16
2016-11-05T13:08:46.429Z,12
2016-11-05T13:09:46.412Z,12
2016-11-05T13:10:46.391Z,8
2016-11-05T13:11:46.370Z,8
2016-11-05T13:12:46.098Z,8
2016-11-05T13:13:46.350Z,4
2016-11-05T13:14:46.031Z,8
2016-11-05T13:15:46.011Z,8
2016-11-05T13:16:46.300Z,8
2016-11-05T13:17:46.295Z,8
2016-11-05T13:18:46.269Z,8
2016-11-05T13:19:46.253Z,8
2016-11-05T13:20:46.231Z,8
2016-11-05T13:21:46.211Z,12
2016-11-05T13:22:46.202Z,20
2016-11-05T13:23:45.881Z,24
2016-11-05T13:24:46.204Z,20
2016-11-05T13:25:46.159Z,24
2016-11-05T13:26:46.153Z,16
2016-11-05T13:27:45.820Z,20
2016-11-05T13:28:45.812Z,44
2016-11-05T13:29:46.088Z,44
2016-11-05T13:30:46.077Z,48
2016-11-05T13:31:45.463Z,40
2016-11-05T13:32:46.044Z,36
2016-11-05T13:33:45.729Z,28
2016-11-05T13:34:46.017Z,32
2016-11-05T13:35:45.697Z,44
2016-11-05T13:36:46.024Z,44
2016-11-05T13:37:45.974Z,48
2016-11-05T13:38:45.953Z,44
2016-11-05T13:39:45.338Z,40
2016-11-05T13:40:45.922Z,44
2016-11-05T13:41:45.917Z,32
2016-11-05T13:42:45.886Z,40
2016-11-05T13:43:45.578Z,36
2016-11-05T13:44:45.863Z,44
2016-11-05T13:45:45.842Z,48
2016-11-05T13:46:45.525Z,40
2016-11-05T13:47:45.823Z,40
2016-11-05T13:48:45.504Z,40
2016-11-05T13:49:45.831Z,36
2016-11-05T13:50:45.464Z,40
2016-11-05T13:51:45.772Z,44
2016-11-05T13:52:45.743Z,44
2016-11-05T13:53:45.114Z,36
2016-11-05T13:54:45.701Z,32
2016-11-05T13:55:45.690Z,32
2016-11-05T13:56:45.693Z,36
2016-11-05T13:57:45.657Z,20
2016-11-05T13:58:45.341Z,28
2016-11-05T13:59:45.331Z,16
2016-11-05T14:00:45.614Z,12
2016-11-05T14:01:45.600Z,8
2016-11-05T14:02:45.587Z,8
2016-11-05T14:03:45.268Z,8
2016-11-05T14:04:45.254Z,4
2016-11-05T14:05:45.534Z,8
2016-11-05T14:06:45.516Z,20
2016-11-05T14:07:45.511Z,8
2016-11-05T14:08:45.498Z,12
2016-11-05T14:09:45.474Z,8
2016-11-05T14:10:45.468Z,8
2016-11-05T14:11:45.440Z,32
2016-11-05T14:12:44.830Z,32
2016-11-05T14:13:45.410Z,36
2016-11-05T14:14:45.392Z,36
2016-11-05T14:15:45.375Z,40
2016-11-05T14:16:45.354Z,20
2016-11-05T14:17:45.048Z,16
2016-11-05T14:18:45.330Z,12
2016-11-05T14:19:45.358Z,12
2016-11-05T14:20:45.304Z,12
2016-11-05T14:21:45.293Z,24
2016-11-05T14:22:45.271Z,36
2016-11-05T14:23:45.261Z,40
2016-11-05T14:24:45.250Z,36
2016-11-05T14:25:45.217Z,16
2016-11-05T14:26:45.204Z,36
2016-11-05T14:27:45.195Z,44
2016-11-05T14:28:45.175Z,48
2016-11-05T14:29:45.154Z,48
2016-11-05T14:30:44.851Z,48
2016-11-05T14:31:44.837Z,44
2016-11-05T14:32:44.807Z,40
2016-11-05T14:33:44.793Z,36
2016-11-05T14:34:45.084Z,12
2016-11-05T14:35:45.059Z,32
2016-11-05T14:36:45.052Z,24
2016-11-05T14:37:45.038Z,12
2016-11-05T14:38:45.025Z,16
2016-11-05T14:39:45.008Z,12
2016-11-05T14:40:44.983Z,12
2016-11-05T14:41:45.007Z,12